Time;durP1;ratioP1;P1;durP2;ratioP2;P2;SDS_P1;SDS_P2;PMS_P1;PMS_P2;Temp;Humidity;BMP_temperature;BMP_pressure;BME280_temperature;BME280_humidity;BME280_pressure;Samples;Min_cycle;Max_cycle;Signal;HPM_P1;HPM_P2
2023/07/19 00:00:39;;;;;;;3.33;1.38;;;;;;;14.90;100.00;101065.66;5088142;28;20055;-54
2023/07/19 00:03:05;;;;;;;3.65;1.55;;;;;;;14.90;100.00;101068.31;5078477;28;20040;-54
2023/07/19 00:05:32;;;;;;;4.45;1.55;;;;;;;14.89;100.00;101058.59;5088627;28;20105;-54
2023/07/19 00:07:58;;;;;;;4.88;1.85;;;;;;;14.81;100.00;101061.69;5082341;28;20059;-54
2023/07/19 00:10:25;;;;;;;8.30;1.27;;;;;;;14.76;100.00;101054.00;5083446;28;20089;-54
2023/07/19 00:12:52;;;;;;;4.93;1.50;;;;;;;14.69;100.00;101044.66;5083569;28;20052;-54
2023/07/19 00:15:23;;;;;;;5.53;1.65;;;;;;;14.61;100.00;101046.91;5086203;28;20040;-54
2023/07/19 00:17:50;;;;;;;5.95;2.33;;;;;;;14.55;100.00;101048.09;5084580;28;20727;-54
2023/07/19 00:20:16;;;;;;;5.18;1.85;;;;;;;14.52;100.00;101050.09;5088512;28;20052;-55
2023/07/19 00:22:43;;;;;;;7.60;2.50;;;;;;;14.48;100.00;101060.00;5087748;28;20132;-54
2023/07/19 00:25:09;;;;;;;4.10;1.83;;;;;;;14.48;100.00;101049.38;5087639;28;20655;-54
2023/07/19 00:27:36;;;;;;;4.28;2.35;;;;;;;14.44;100.00;101054.03;5085271;28;20313;-55
2023/07/19 00:30:03;;;;;;;4.35;2.00;;;;;;;14.42;100.00;101055.91;5087584;28;20080;-55
2023/07/19 00:32:29;;;;;;;4.25;1.90;;;;;;;14.38;100.00;101054.34;5081718;28;20063;-55
2023/07/19 00:34:56;;;;;;;3.92;1.42;;;;;;;14.37;100.00;101042.03;5086570;28;20051;-55
2023/07/19 00:37:23;;;;;;;2.63;1.58;;;;;;;14.40;100.00;101036.53;5089966;28;20043;-55
2023/07/19 00:39:50;;;;;;;4.10;2.20;;;;;;;14.35;100.00;101033.25;5081648;28;20558;-54
2023/07/19 00:42:16;;;;;;;3.38;1.73;;;;;;;14.31;100.00;101032.59;5081420;28;20459;-55
2023/07/19 00:44:43;;;;;;;4.35;1.67;;;;;;;14.29;100.00;101033.63;5077766;28;20048;-55
2023/07/19 00:47:09;;;;;;;4.53;2.00;;;;;;;14.27;100.00;101036.38;5083673;28;20388;-55
2023/07/19 00:49:40;;;;;;;4.32;1.83;;;;;;;14.19;100.00;101027.09;5082133;28;20340;-55
2023/07/19 00:52:07;;;;;;;7.83;1.93;;;;;;;14.13;100.00;101025.66;5085605;28;20142;-54
2023/07/19 00:54:34;;;;;;;3.20;1.70;;;;;;;14.03;100.00;101024.47;5074381;28;20299;-54
2023/07/19 00:57:03;;;;;;;3.55;1.50;;;;;;;13.96;100.00;101029.25;5086313;28;20044;-54
2023/07/19 00:59:31;;;;;;;3.78;1.58;;;;;;;13.93;100.00;101026.78;5088167;28;20636;-55
2023/07/19 01:01:58;;;;;;;3.13;1.77;;;;;;;13.90;100.00;101026.94;5082764;28;20048;-54
2023/07/19 01:04:25;;;;;;;2.45;1.65;;;;;;;13.88;100.00;101012.91;5086326;28;20513;-54
2023/07/19 01:06:52;;;;;;;3.53;1.80;;;;;;;13.86;100.00;101020.06;5087856;28;20047;-55
2023/07/19 01:09:18;;;;;;;2.83;1.70;;;;;;;13.76;100.00;101020.59;5084344;28;20050;-54
2023/07/19 01:11:45;;;;;;;4.47;1.30;;;;;;;13.79;100.00;101019.56;5088919;28;20048;-54
2023/07/19 01:14:12;;;;;;;4.60;1.30;;;;;;;13.80;100.00;101017.75;5091608;28;20044;-55
2023/07/19 01:16:38;;;;;;;5.95;1.90;;;;;;;13.79;100.00;101013.38;5077029;28;20048;-54
2023/07/19 01:19:08;;;;;;;3.58;1.50;;;;;;;13.74;100.00;101011.81;5085304;28;20084;-55
2023/07/19 01:21:34;;;;;;;7.13;3.42;;;;;;;13.70;100.00;101014.75;5087469;28;20048;-54
2023/07/19 01:24:02;;;;;;;20.77;11.60;;;;;;;13.63;100.00;101014.22;5078156;28;20056;-54
2023/07/19 01:26:29;;;;;;;22.98;13.48;;;;;;;13.59;100.00;101012.69;5082638;28;20040;-54
2023/07/19 01:28:56;;;;;;;21.95;12.07;;;;;;;13.55;100.00;101003.16;5087061;28;20083;-54
2023/07/19 01:31:23;;;;;;;12.63;8.32;;;;;;;13.49;100.00;101004.34;5081667;28;20131;-54
2023/07/19 01:33:50;;;;;;;11.85;7.07;;;;;;;13.48;100.00;101001.78;5084712;28;20052;-54
2023/07/19 01:36:17;;;;;;;26.92;14.77;;;;;;;13.47;100.00;100998.28;5082248;28;20108;-55
2023/07/19 01:38:43;;;;;;;27.23;17.33;;;;;;;13.46;100.00;101001.00;5091849;28;20049;-55
2023/07/19 01:41:10;;;;;;;41.55;23.40;;;;;;;13.42;100.00;101005.63;5075697;28;20099;-55
2023/07/19 01:43:36;;;;;;;29.65;18.20;;;;;;;13.37;100.00;101000.56;5086004;28;20048;-54
2023/07/19 01:46:03;;;;;;;22.80;13.05;;;;;;;13.35;100.00;100999.75;5079101;28;20050;-54
2023/07/19 01:48:30;;;;;;;12.52;6.05;;;;;;;13.37;100.00;101005.88;5080705;28;20578;-55
2023/07/19 01:50:56;;;;;;;15.07;7.53;;;;;;;13.40;100.00;101000.41;5080065;28;20048;-54
2023/07/19 01:53:23;;;;;;;14.48;6.20;;;;;;;13.37;100.00;101003.22;5089124;28;20083;-54
2023/07/19 01:55:50;;;;;;;14.80;7.32;;;;;;;13.39;100.00;101001.31;5084462;28;20059;-55
2023/07/19 01:58:16;;;;;;;11.77;7.25;;;;;;;13.34;100.00;100992.75;5072389;28;20040;-54
2023/07/19 02:00:43;;;;;;;8.63;6.05;;;;;;;13.32;100.00;100984.03;5072842;28;20173;-54
2023/07/19 02:03:09;;;;;;;12.35;5.53;;;;;;;13.31;100.00;100981.41;5079608;28;20103;-54
2023/07/19 02:05:38;;;;;;;6.85;4.63;;;;;;;13.32;100.00;100978.72;5089548;28;20123;-54
2023/07/19 02:08:05;;;;;;;10.18;4.85;;;;;;;13.27;100.00;100978.03;5071042;28;20138;-54
2023/07/19 02:10:31;;;;;;;5.65;3.25;;;;;;;13.25;100.00;100985.25;5070557;28;20044;-55
2023/07/19 02:12:58;;;;;;;8.30;3.70;;;;;;;13.19;100.00;100980.25;5088680;28;20083;-54
2023/07/19 02:15:24;;;;;;;6.50;3.58;;;;;;;13.13;100.00;100977.94;5080170;28;20131;-54
2023/07/19 02:17:51;;;;;;;5.15;3.17;;;;;;;13.11;100.00;100982.44;5068811;28;20156;-54
2023/07/19 02:20:19;;;;;;;7.60;3.33;;;;;;;13.04;100.00;100979.25;5085503;28;20052;-54
2023/07/19 02:22:46;;;;;;;11.30;5.03;;;;;;;12.99;100.00;100976.84;5078844;28;20117;-55
2023/07/19 02:25:13;;;;;;;5.60;3.58;;;;;;;12.99;100.00;100970.69;5096119;28;20044;-55
2023/07/19 02:27:39;;;;;;;6.75;3.67;;;;;;;12.96;100.00;100971.72;5094626;28;20056;-54
2023/07/19 02:30:07;;;;;;;7.80;3.60;;;;;;;12.93;100.00;100976.31;5069732;28;20449;-54
2023/07/19 02:32:33;;;;;;;7.65;3.08;;;;;;;12.94;100.00;100970.91;5069601;28;20048;-55
2023/07/19 02:35:00;;;;;;;7.60;3.50;;;;;;;12.95;100.00;100975.31;5068019;28;20147;-54
2023/07/19 02:37:27;;;;;;;5.40;3.10;;;;;;;13.00;100.00;100967.97;5068050;28;20052;-54
2023/07/19 02:39:53;;;;;;;4.88;3.42;;;;;;;13.02;100.00;100959.91;5085659;28;20120;-54
2023/07/19 02:42:20;;;;;;;12.70;3.38;;;;;;;13.08;100.00;100956.06;5088277;28;20052;-55
2023/07/19 02:44:47;;;;;;;7.18;3.15;;;;;;;13.09;100.00;100952.50;5088752;28;20120;-55
2023/07/19 02:47:13;;;;;;;4.10;2.65;;;;;;;13.14;100.00;100953.09;5081750;28;20048;-54
2023/07/19 02:49:41;;;;;;;4.65;2.67;;;;;;;13.19;100.00;100943.09;5075160;28;20159;-55
2023/07/19 02:52:08;;;;;;;5.07;3.00;;;;;;;13.25;100.00;100949.88;5068551;28;20044;-54
2023/07/19 02:54:35;;;;;;;3.38;2.20;;;;;;;13.32;100.00;100946.84;5069408;28;20084;-55
2023/07/19 02:57:02;;;;;;;8.77;2.72;;;;;;;13.38;100.00;100949.16;5084435;28;20058;-54
2023/07/19 02:59:28;;;;;;;8.35;2.40;;;;;;;13.41;100.00;100945.50;5088171;28;20052;-55
2023/07/19 03:01:55;;;;;;;7.22;2.70;;;;;;;13.44;100.00;100955.06;5081956;28;20055;-54
2023/07/19 03:04:21;;;;;;;6.03;2.65;;;;;;;13.46;100.00;100950.56;5089761;28;20048;-55
2023/07/19 03:06:49;;;;;;;4.22;2.58;;;;;;;13.49;100.00;100950.38;5088142;28;20052;-55
2023/07/19 03:09:15;;;;;;;12.35;5.25;;;;;;;13.52;100.00;100956.38;5090064;28;20048;-55
2023/07/19 03:11:42;;;;;;;7.53;3.20;;;;;;;13.55;100.00;100952.69;5088129;28;20456;-54
2023/07/19 03:14:08;;;;;;;8.18;2.92;;;;;;;13.57;100.00;100951.66;5086821;28;20076;-54
2023/07/19 03:16:36;;;;;;;5.80;3.08;;;;;;;13.65;100.00;100943.28;5085865;28;20048;-54
2023/07/19 03:19:03;;;;;;;4.80;3.28;;;;;;;13.74;100.00;100950.72;5086897;28;20044;-54
2023/07/19 03:21:30;;;;;;;8.07;4.13;;;;;;;13.81;100.00;100943.28;5082400;28;20050;-54
2023/07/19 03:23:56;;;;;;;9.10;4.05;;;;;;;13.86;100.00;100945.66;5078315;28;20048;-54
2023/07/19 03:26:23;;;;;;;5.85;3.40;;;;;;;13.91;100.00;100943.59;5072920;28;20054;-54
2023/07/19 03:28:49;;;;;;;10.32;2.83;;;;;;;13.98;100.00;100944.13;5077368;28;20044;-54
2023/07/19 03:31:16;;;;;;;4.32;2.72;;;;;;;13.98;100.00;100945.00;5087290;28;20158;-55
2023/07/19 03:33:43;;;;;;;4.45;2.40;;;;;;;14.01;100.00;100939.50;5080181;28;20062;-54
2023/07/19 03:36:09;;;;;;;7.43;3.38;;;;;;;13.98;100.00;100945.00;5087211;28;20112;-55
2023/07/19 03:38:36;;;;;;;7.35;3.00;;;;;;;13.94;100.00;100948.75;5078726;28;20044;-54
2023/07/19 03:41:07;;;;;;;5.47;2.78;;;;;;;13.91;100.00;100948.91;5086620;28;20048;-54
2023/07/19 03:43:35;;;;;;;6.20;3.33;;;;;;;13.84;100.00;100952.88;5085174;28;20506;-55
2023/07/19 03:46:02;;;;;;;8.25;3.33;;;;;;;13.76;100.00;100956.84;5081305;28;20063;-54
2023/07/19 03:48:29;;;;;;;8.25;3.33;;;;;;;13.75;100.00;100947.13;5079421;28;20048;-54
2023/07/19 03:51:00;;;;;;;12.02;4.07;;;;;;;13.82;100.00;100954.78;5081449;28;20058;-54
2023/07/19 03:53:28;;;;;;;6.95;3.38;;;;;;;13.84;100.00;100958.19;5088642;28;20508;-55
2023/07/19 03:55:59;;;;;;;11.50;2.95;;;;;;;13.88;100.00;100946.47;5083964;28;20054;-54
2023/07/19 03:58:26;;;;;;;;;;;;;;;13.93;100.00;100947.91;5089008;28;20131;-55
2023/07/19 04:00:58;;;;;;;8.13;3.05;;;;;;;13.97;100.00;100947.72;5076323;28;20349;-54
2023/07/19 04:03:26;;;;;;;9.95;4.20;;;;;;;14.01;100.00;100955.44;5087618;28;20137;-55
2023/07/19 04:05:54;;;;;;;11.75;3.30;;;;;;;14.06;100.00;100958.69;5083043;28;20040;-55
2023/07/19 04:08:20;;;;;;;5.15;2.97;;;;;;;14.13;100.00;100951.22;5090113;28;20040;-55
2023/07/19 04:10:47;;;;;;;9.90;3.75;;;;;;;14.17;100.00;100954.56;5081755;28;20052;-55
2023/07/19 04:13:14;;;;;;;10.02;3.53;;;;;;;14.20;100.00;100954.38;5078433;28;20055;-55
2023/07/19 04:15:40;;;;;;;6.07;2.85;;;;;;;14.23;100.00;100959.53;5089036;28;20498;-55
2023/07/19 04:18:07;;;;;;;8.43;2.70;;;;;;;14.27;100.00;100950.41;5089237;28;20044;-54
2023/07/19 04:20:36;;;;;;;9.43;2.70;;;;;;;14.30;100.00;100951.13;5088343;28;20456;-55
2023/07/19 04:23:03;;;;;;;13.70;3.00;;;;;;;14.39;100.00;100949.72;5092698;28;20051;-55
2023/07/19 04:25:31;;;;;;;7.88;3.08;;;;;;;14.47;100.00;100960.75;5092757;28;20040;-56
2023/07/19 04:27:57;;;;;;;5.55;2.90;;;;;;;14.56;100.00;100939.88;5081369;28;20048;-55
2023/07/19 04:30:24;;;;;;;9.77;2.83;;;;;;;14.69;100.00;100938.22;5074014;28;20106;-55
2023/07/19 04:32:54;;;;;;;10.45;3.05;;;;;;;14.78;100.00;100929.72;5074617;28;20693;-55
2023/07/19 04:35:24;;;;;;;13.65;2.90;;;;;;;14.91;100.00;100931.59;5086382;28;20051;-55
2023/07/19 04:37:51;;;;;;;6.90;3.15;;;;;;;15.01;100.00;100933.63;5074393;28;20044;-54
2023/07/19 04:40:18;;;;;;;7.68;3.40;;;;;;;15.03;100.00;100929.06;5094544;28;20080;-54
2023/07/19 04:42:44;;;;;;;13.82;3.08;;;;;;;15.07;100.00;100927.06;5081247;28;20127;-55
2023/07/19 04:45:13;;;;;;;7.68;3.45;;;;;;;15.04;100.00;100924.59;5085460;28;20176;-54
2023/07/19 04:47:39;;;;;;;7.90;2.45;;;;;;;15.05;100.00;100915.66;5089182;28;20349;-54
2023/07/19 04:50:07;;;;;;;8.32;3.90;;;;;;;15.06;100.00;100920.03;5089277;28;20067;-54
2023/07/19 04:52:33;;;;;;;7.25;2.47;;;;;;;15.08;100.00;100915.47;5090490;28;20480;-54
2023/07/19 04:55:02;;;;;;;7.57;2.38;;;;;;;15.10;100.00;100924.22;5083602;28;20037;-55
2023/07/19 04:57:28;;;;;;;5.85;2.53;;;;;;;15.15;100.00;100927.47;5070163;28;20087;-54
2023/07/19 04:59:55;;;;;;;14.55;2.92;;;;;;;15.20;100.00;100917.38;5083418;28;20072;-54
2023/07/19 05:02:21;;;;;;;9.15;2.40;;;;;;;15.29;100.00;100913.28;5089381;28;20597;-54
2023/07/19 05:04:48;;;;;;;11.98;3.03;;;;;;;15.42;100.00;100908.03;5083189;28;20048;-55
2023/07/19 05:07:17;;;;;;;6.82;2.92;;;;;;;15.57;100.00;100917.69;5088276;28;20079;-55
2023/07/19 05:09:44;;;;;;;9.80;3.25;;;;;;;15.77;100.00;100910.25;5090631;28;20040;-54
2023/07/19 05:12:10;;;;;;;8.15;2.33;;;;;;;15.95;100.00;100911.75;5088458;28;20044;-54
2023/07/19 05:14:37;;;;;;;6.70;3.17;;;;;;;16.12;100.00;100917.78;5084300;28;20035;-55
2023/07/19 05:17:04;;;;;;;9.95;2.88;;;;;;;16.22;100.00;100918.88;5086007;28;20079;-54
2023/07/19 05:19:31;;;;;;;11.77;3.08;;;;;;;16.38;100.00;100920.50;5086604;28;20052;-54
2023/07/19 05:21:57;;;;;;;10.27;3.17;;;;;;;16.47;100.00;100917.22;5074537;28;20086;-55
2023/07/19 05:24:24;;;;;;;7.88;2.50;;;;;;;16.56;100.00;100915.72;5088770;28;20127;-54
2023/07/19 05:26:51;;;;;;;12.48;3.47;;;;;;;16.60;100.00;100909.22;5077964;28;20691;-55
2023/07/19 05:29:17;;;;;;;12.32;3.85;;;;;;;16.60;100.00;100918.06;5084083;28;20048;-55
2023/07/19 05:31:44;;;;;;;11.73;3.42;;;;;;;16.68;100.00;100918.41;5076864;28;20059;-55
2023/07/19 05:34:10;;;;;;;13.68;3.28;;;;;;;16.82;100.00;100916.59;5088329;28;20626;-55
2023/07/19 05:36:37;;;;;;;7.10;2.92;;;;;;;16.87;100.00;100920.69;5088226;28;20044;-54
2023/07/19 05:39:05;;;;;;;5.38;2.88;;;;;;;17.01;100.00;100914.38;5080099;28;20127;-55
2023/07/19 05:41:31;;;;;;;5.95;3.00;;;;;;;17.14;100.00;100921.53;5086353;28;20052;-55
2023/07/19 05:43:58;;;;;;;12.60;3.17;;;;;;;17.29;100.00;100920.44;5084604;28;20040;-54
2023/07/19 05:46:37;;;;;;;14.23;3.58;;;;;;;17.42;100.00;100915.91;5084086;28;20121;-55
2023/07/19 05:49:04;;;;;;;5.90;2.88;;;;;;;17.39;100.00;100909.94;5078683;28;20087;-55
2023/07/19 05:51:30;;;;;;;11.45;3.53;;;;;;;17.38;100.00;100913.59;5081488;28;20051;-55
2023/07/19 05:53:57;;;;;;;9.88;3.33;;;;;;;17.45;100.00;100909.53;5082735;28;20123;-55
2023/07/19 05:56:24;;;;;;;6.93;2.47;;;;;;;17.58;100.00;100896.13;5079158;28;20047;-56
2023/07/19 05:58:51;;;;;;;4.82;2.40;;;;;;;17.56;100.00;100896.22;5087171;28;20135;-54
2023/07/19 06:01:19;;;;;;;5.10;2.42;;;;;;;17.68;100.00;100883.78;5087576;28;20048;-54
2023/07/19 06:03:48;;;;;;;11.02;2.40;;;;;;;17.86;100.00;100883.41;5074887;28;20109;-54
2023/07/19 06:06:15;;;;;;;4.68;2.15;;;;;;;18.01;100.00;100890.31;5086472;28;20076;-55
2023/07/19 06:08:41;;;;;;;5.93;2.63;;;;;;;18.17;100.00;100893.53;5074654;28;20052;-54
2023/07/19 06:11:08;;;;;;;8.43;2.78;;;;;;;18.29;100.00;100882.88;5084966;28;20131;-55
2023/07/19 06:13:34;;;;;;;7.63;2.83;;;;;;;18.60;100.00;100885.88;5077228;28;20090;-54
2023/07/19 06:16:01;;;;;;;8.13;3.08;;;;;;;18.81;100.00;100886.03;5086164;28;20094;-54
2023/07/19 06:18:29;;;;;;;11.43;3.20;;;;;;;18.73;100.00;100891.97;5087342;28;20051;-55
2023/07/19 06:20:55;;;;;;;9.65;2.28;;;;;;;18.86;100.00;100871.34;5077755;28;20048;-55
2023/07/19 06:23:22;;;;;;;17.67;3.03;;;;;;;18.97;100.00;100873.16;5085176;28;20454;-57
2023/07/19 06:25:49;;;;;;;13.23;2.72;;;;;;;19.05;100.00;100875.25;5070579;28;20051;-54
2023/07/19 06:28:16;;;;;;;12.23;2.45;;;;;;;19.01;100.00;100873.75;5084265;28;20087;-56
2023/07/19 06:30:42;;;;;;;6.35;2.63;;;;;;;19.13;100.00;100882.69;5078528;28;20052;-55
2023/07/19 06:33:09;;;;;;;13.30;2.10;;;;;;;19.19;100.00;100874.13;5087500;28;20139;-55
2023/07/19 06:35:36;;;;;;;8.13;2.13;;;;;;;19.38;100.00;100870.81;5087028;28;20105;-53
2023/07/19 06:38:02;;;;;;;7.50;2.53;;;;;;;19.55;100.00;100872.13;5085429;28;20101;-55
2023/07/19 06:40:29;;;;;;;7.15;2.00;;;;;;;19.40;100.00;100876.91;5078137;28;20105;-55
2023/07/19 06:42:56;;;;;;;6.10;2.90;;;;;;;19.36;100.00;100870.09;5083172;28;20050;-55
2023/07/19 06:45:22;;;;;;;7.50;2.92;;;;;;;19.31;100.00;100872.31;5080150;28;20106;-54
2023/07/19 06:47:49;;;;;;;7.75;2.63;;;;;;;19.35;100.00;100866.56;5074543;28;20044;-54
2023/07/19 06:50:17;;;;;;;10.27;2.50;;;;;;;19.34;100.00;100866.69;5086617;28;20056;-54
2023/07/19 06:52:44;;;;;;;15.02;3.22;;;;;;;19.36;100.00;100862.06;5084901;28;20071;-54
2023/07/19 06:55:10;;;;;;;13.38;2.28;;;;;;;19.60;100.00;100856.53;5083389;28;20041;-54
2023/07/19 06:57:37;;;;;;;9.95;3.30;;;;;;;19.89;100.00;100854.13;5072796;28;20139;-55
2023/07/19 07:00:05;;;;;;;7.32;2.25;;;;;;;20.04;100.00;100848.47;5084991;28;20574;-54
2023/07/19 07:02:32;;;;;;;8.60;2.45;;;;;;;20.19;100.00;100844.50;5075892;28;20135;-55
2023/07/19 07:04:58;;;;;;;5.60;2.30;;;;;;;20.15;100.00;100849.25;5085789;28;20147;-55
2023/07/19 07:07:25;;;;;;;7.75;2.30;;;;;;;20.23;100.00;100851.31;5084177;28;20051;-55
2023/07/19 07:09:53;;;;;;;4.65;2.60;;;;;;;20.39;100.00;100855.38;5086100;28;20505;-55
2023/07/19 07:12:19;;;;;;;9.30;1.90;;;;;;;20.38;100.00;100853.66;5087511;28;20059;-55
2023/07/19 07:14:46;;;;;;;4.45;2.10;;;;;;;20.64;100.00;100846.91;5081303;28;20040;-55
2023/07/19 07:17:16;;;;;;;5.88;2.33;;;;;;;20.84;100.00;100849.69;5087028;28;20493;-55
2023/07/19 07:19:42;;;;;;;8.07;1.95;;;;;;;21.05;100.00;100847.84;5077769;28;20052;-55
2023/07/19 07:22:09;;;;;;;7.45;2.30;;;;;;;21.37;100.00;100848.63;5078318;28;20135;-54
2023/07/19 07:24:36;;;;;;;9.23;2.60;;;;;;;21.76;100.00;100841.50;5081631;28;20140;-54
2023/07/19 07:27:03;;;;;;;8.55;2.40;;;;;;;21.92;100.00;100845.44;5080695;28;20049;-55
2023/07/19 07:29:29;;;;;;;6.03;1.77;;;;;;;21.79;100.00;100849.28;5079548;28;20435;-54
2023/07/19 07:31:56;;;;;;;5.28;2.00;;;;;;;21.69;100.00;100837.66;5078116;28;20481;-55
2023/07/19 07:34:24;;;;;;;10.13;2.97;;;;;;;21.76;100.00;100836.13;5082215;28;20047;-55
2023/07/19 07:36:50;;;;;;;7.53;1.95;;;;;;;21.49;100.00;100839.47;5082624;28;20121;-55
2023/07/19 07:39:17;;;;;;;5.68;1.80;;;;;;;21.21;100.00;100838.41;5087534;28;20063;-55
2023/07/19 07:41:45;;;;;;;5.20;2.08;;;;;;;21.49;100.00;100849.38;5084524;28;20075;-54
2023/07/19 07:44:11;;;;;;;4.90;1.80;;;;;;;21.62;100.00;100833.84;5091209;28;20054;-55
2023/07/19 07:46:38;;;;;;;5.30;1.90;;;;;;;21.51;100.00;100828.59;5080975;28;20075;-53
2023/07/19 07:49:05;;;;;;;6.03;2.10;;;;;;;21.68;100.00;100827.91;5084398;28;20063;-54
2023/07/19 07:51:33;;;;;;;10.65;2.75;;;;;;;21.67;100.00;100826.19;5091375;28;20619;-54
2023/07/19 07:53:59;;;;;;;6.57;2.80;;;;;;;21.75;100.00;100825.50;5086577;28;20048;-54
2023/07/19 07:56:26;;;;;;;7.30;2.33;;;;;;;21.72;100.00;100820.41;5082310;28;20077;-55
2023/07/19 07:58:52;;;;;;;8.70;2.00;;;;;;;22.05;100.00;100818.25;5083680;28;20056;-55
2023/07/19 08:01:19;;;;;;;5.05;2.58;;;;;;;22.63;100.00;100817.34;5087008;28;20179;-55
2023/07/19 08:03:47;;;;;;;7.10;2.28;;;;;;;22.52;100.00;100826.44;5090084;28;20569;-55
2023/07/19 08:06:13;;;;;;;7.82;2.40;;;;;;;22.39;100.00;100818.66;5090972;28;20040;-57
2023/07/19 08:08:40;;;;;;;6.40;2.40;;;;;;;22.51;100.00;100817.50;5087058;28;20054;-55
2023/07/19 08:11:06;;;;;;;5.82;2.00;;;;;;;22.34;100.00;100812.88;5085991;28;20055;-56
2023/07/19 08:13:33;;;;;;;6.18;2.80;;;;;;;22.66;100.00;100823.28;5083984;28;20098;-56
2023/07/19 08:16:00;;;;;;;7.85;2.60;;;;;;;22.33;99.92;100816.53;5088819;28;20054;-56
2023/07/19 08:18:26;;;;;;;5.53;1.90;;;;;;;22.53;100.00;100817.38;5082367;28;20123;-56
2023/07/19 08:20:54;;;;;;;4.72;2.05;;;;;;;22.64;100.00;100814.50;5086287;28;20146;-55
2023/07/19 08:23:21;;;;;;;7.20;2.20;;;;;;;22.64;98.65;100813.63;5079654;28;20076;-55
2023/07/19 08:25:47;;;;;;;6.72;2.20;;;;;;;22.44;98.47;100802.91;5088985;28;20097;-55
2023/07/19 08:28:14;;;;;;;5.97;2.28;;;;;;;22.88;95.32;100800.47;5084478;28;20131;-55
2023/07/19 08:30:40;;;;;;;4.47;1.63;;;;;;;23.28;93.22;100796.59;5084150;28;20082;-55
2023/07/19 08:33:08;;;;;;;7.57;1.90;;;;;;;23.37;87.75;100788.59;5089971;28;20046;-55
2023/07/19 08:35:34;;;;;;;10.93;2.17;;;;;;;23.15;88.33;100806.03;5088869;28;20050;-55
2023/07/19 08:38:01;;;;;;;4.60;2.22;;;;;;;22.84;90.17;100801.78;5072612;28;20048;-55
2023/07/19 08:40:30;;;;;;;6.10;2.00;;;;;;;23.04;89.43;100790.91;5088501;28;20080;-55
2023/07/19 08:42:57;;;;;;;4.25;1.95;;;;;;;22.99;88.65;100794.06;5088987;28;20139;-55
2023/07/19 08:45:26;;;;;;;3.60;1.92;;;;;;;23.26;83.22;100801.31;5086089;28;20040;-56
2023/07/19 08:47:53;;;;;;;5.70;2.00;;;;;;;23.19;80.63;100797.50;5087776;28;20453;-56
2023/07/19 08:50:21;;;;;;;5.38;1.55;;;;;;;23.14;84.39;100797.13;5084361;28;20610;-55
2023/07/19 08:52:48;;;;;;;5.13;1.85;;;;;;;23.10;84.27;100798.44;5086788;28;20078;-55
2023/07/19 08:55:15;;;;;;;7.53;1.98;;;;;;;23.15;82.13;100796.13;5089236;28;20494;-55
2023/07/19 08:57:43;;;;;;;11.55;2.42;;;;;;;23.48;81.13;100793.78;5089286;28;20080;-55
2023/07/19 09:00:10;;;;;;;3.58;1.70;;;;;;;23.81;79.46;100799.47;5083654;28;20136;-55
2023/07/19 09:02:37;;;;;;;4.75;1.50;;;;;;;24.40;76.53;100793.53;5082460;28;20139;-55
2023/07/19 09:05:12;;;;;;;6.53;1.50;;;;;;;24.66;73.08;100791.69;5075263;28;20047;-55
2023/07/19 09:07:39;;;;;;;3.78;1.40;;;;;;;24.51;71.53;100787.88;5088329;28;20117;-56
2023/07/19 09:10:09;;;;;;;3.42;1.58;;;;;;;24.78;73.84;100794.09;5088531;28;20046;-56
2023/07/19 09:12:36;;;;;;;5.55;2.05;;;;;;;24.50;70.45;100792.41;5084533;28;20133;-56
2023/07/19 09:15:08;;;;;;;6.93;2.38;;;;;;;24.64;73.83;100791.00;5081193;28;20129;-56
2023/07/19 09:17:42;;;;;;;4.53;1.90;;;;;;;24.38;71.95;100794.53;5083284;28;20051;-56
2023/07/19 09:20:10;;;;;;;3.92;1.52;;;;;;;25.01;72.40;100794.38;5076657;28;20633;-55
2023/07/19 09:22:37;;;;;;;4.05;1.40;;;;;;;25.13;71.09;100778.72;5078834;28;20056;-56
2023/07/19 09:25:12;;;;;;;6.45;2.35;;;;;;;25.82;66.81;100779.34;5081301;28;20200;-56
2023/07/19 09:27:43;;;;;;;4.13;1.85;;;;;;;25.96;62.36;100772.41;5077000;28;20419;-55
2023/07/19 09:30:13;;;;;;;4.15;2.25;;;;;;;25.41;61.34;100780.16;5084582;28;20055;-55
2023/07/19 09:32:41;;;;;;;6.40;1.38;;;;;;;24.56;65.63;100780.16;5082461;28;20581;-55
2023/07/19 09:35:08;;;;;;;7.13;1.65;;;;;;;24.86;69.26;100775.22;5085363;28;20068;-56
2023/07/19 09:37:35;;;;;;;7.32;1.38;;;;;;;24.74;65.07;100775.50;5077341;28;20618;-55
2023/07/19 09:40:04;;;;;;;7.70;1.75;;;;;;;24.49;64.18;100774.53;5086968;28;20058;-56
2023/07/19 09:42:32;;;;;;;6.30;1.65;;;;;;;24.72;61.64;100769.44;5089104;28;20112;-56
2023/07/19 09:45:00;;;;;;;3.88;1.73;;;;;;;24.99;62.11;100762.09;5086803;28;20105;-55
2023/07/19 09:47:28;;;;;;;5.40;2.03;;;;;;;25.13;58.89;100759.78;5087940;28;20196;-55
2023/07/19 09:49:56;;;;;;;6.95;1.65;;;;;;;25.73;60.81;100755.97;5084004;28;20056;-56
2023/07/19 09:52:25;;;;;;;3.35;1.48;;;;;;;25.44;60.53;100752.75;5084040;28;20083;-56
2023/07/19 09:54:53;;;;;;;3.80;1.52;;;;;;;24.91;63.18;100756.66;5088725;28;20040;-55
2023/07/19 09:57:23;;;;;;;4.15;1.50;;;;;;;25.30;64.15;100749.88;5087438;28;20056;-56
2023/07/19 09:59:51;;;;;;;6.35;2.00;;;;;;;24.76;62.74;100744.78;5078062;28;20379;-56
2023/07/19 10:02:21;;;;;;;4.90;1.77;;;;;;;25.00;63.88;100749.44;5087804;28;20079;-57
2023/07/19 10:04:47;;;;;;;7.37;2.63;;;;;;;24.41;64.18;100749.31;5083794;28;20078;-55
2023/07/19 10:07:25;;;;;;;8.32;1.70;;;;;;;24.96;62.46;100757.00;5087850;28;20078;-55
2023/07/19 10:10:14;;;;;;;11.20;1.90;;;;;;;25.61;65.74;100750.06;5083298;28;20096;-56
2023/07/19 10:12:46;;;;;;;5.63;1.48;;;;;;;25.42;61.32;100749.38;5078733;28;20464;-56
2023/07/19 10:15:16;;;;;;;9.63;2.25;;;;;;;25.82;59.90;100749.56;5087038;28;20083;-55
2023/07/19 10:17:50;;;;;;;5.63;2.05;;;;;;;26.32;58.08;100755.78;5079947;28;20048;-55
2023/07/19 10:20:17;;;;;;;7.43;2.13;;;;;;;25.39;58.38;100752.41;5088608;28;20640;-55
2023/07/19 10:22:57;;;;;;;5.32;1.73;;;;;;;25.74;59.69;100750.41;5083894;28;20151;-55
2023/07/19 10:25:31;;;;;;;;;;;;;;;26.02;58.18;100739.25;5087817;28;20048;-56
2023/07/19 10:28:01;;;;;;;3.92;1.77;;;;;;;25.78;56.13;100742.78;5077339;28;19988;-56
2023/07/19 10:30:43;;;;;;;8.63;1.63;;;;;;;25.84;55.81;100742.09;5081629;28;20130;-55
2023/07/19 10:33:19;;;;;;;3.83;1.80;;;;;;;25.53;56.26;100736.53;5086169;28;20048;-55
2023/07/19 10:35:49;;;;;;;11.35;1.83;;;;;;;26.41;53.43;100733.06;5086164;28;20101;-56
2023/07/19 10:38:17;;;;;;;12.20;2.35;;;;;;;25.85;53.30;100724.84;5087198;28;20048;-55
2023/07/19 10:40:46;;;;;;;11.90;1.95;;;;;;;26.35;54.46;100733.75;5084210;28;20055;-54
2023/07/19 10:43:14;;;;;;;6.95;1.80;;;;;;;26.53;53.94;100726.25;5085035;28;20048;-54
2023/07/19 10:45:41;;;;;;;9.13;1.88;;;;;;;26.93;51.87;100732.53;5078884;28;20044;-55
2023/07/19 10:48:09;;;;;;;5.45;1.48;;;;;;;26.83;51.90;100723.78;5084158;28;20079;-55
2023/07/19 10:50:36;;;;;;;5.15;1.60;;;;;;;25.85;54.05;100732.16;5077141;28;20147;-55
2023/07/19 10:53:02;;;;;;;5.18;1.98;;;;;;;25.75;55.12;100722.31;5084653;28;20155;-54
2023/07/19 10:55:29;;;;;;;3.33;1.45;;;;;;;26.07;54.21;100720.59;5085196;28;20126;-56
2023/07/19 10:58:15;;;;;;;5.20;1.73;;;;;;;26.98;51.06;100728.44;5075272;28;20101;-55
2023/07/19 11:00:43;;;;;;;8.27;1.88;;;;;;;26.81;50.32;100725.81;5086167;28;20447;-56
2023/07/19 11:03:14;;;;;;;5.20;1.95;;;;;;;25.74;52.56;100720.63;5086090;28;20495;-55
2023/07/19 11:05:51;;;;;;;8.68;2.15;;;;;;;26.79;51.76;100722.41;5093233;28;20052;-55
2023/07/19 11:08:26;;;;;;;6.20;2.08;;;;;;;26.72;51.59;100724.16;5078602;28;20040;-55
2023/07/19 11:10:54;;;;;;;9.68;2.08;;;;;;;26.73;50.88;100713.16;5089848;28;20071;-55
2023/07/19 11:13:24;;;;;;;6.82;1.85;;;;;;;27.21;49.98;100718.47;5080895;28;20105;-54
2023/07/19 11:15:53;;;;;;;7.40;2.15;;;;;;;28.27;46.89;100706.88;5087954;28;20040;-55
2023/07/19 11:18:38;;;;;;;8.88;2.17;;;;;;;27.84;46.08;100712.91;5091383;28;20055;-55